KAKH/AKH METAR and TAF weather

Enter ICAO airport designator
Station Type Date Time Source
KAKH METAR 2021/09/28 04:54 UTC NOAA

KAKH 280454Z AUTO 00000KT 10SM CLR 14/14 A3007 RMK AO2 SLP177 T01440139 402720117


Station Type Date Time Source
KAKH Decoded METAR 2021/09/28 04:54 UTC NOAA

GASTONIA MUNICIPAL AIRPORT, NC, United States (KAKH) 35-12N 81-09W 243M
Sep 28, 2021 - 12:54 AM EDT / 2021.09.28 0454 UTC
Wind: Calm:0
Visibility: 10 mile(s):0
Sky conditions: clear
Temperature: 57.9 F (14.4 C)
Dew Point: 57.0 F (13.9 C)
Relative Humidity: 96%
Pressure (altimeter): 30.07 in. Hg (1018 hPa)
ob: KAKH 280454Z AUTO 00000KT 10SM CLR 14/14 A3007 RMK AO2 SLP177 T01440139 402720117
cycle: 5

Station Type Date Time Source
KAKH TAF UTC NOAA

Error!

Example: see airport list